sensor_id;sensor_type;location;lat;lon;timestamp;temperature;humidity
24802;DHT22;12898;50.520;12.152;2023-07-13T00:00:34;15.50;99.90
24802;DHT22;12898;50.520;12.152;2023-07-13T00:03:01;15.40;99.90
24802;DHT22;12898;50.520;12.152;2023-07-13T00:05:28;15.40;99.90
24802;DHT22;12898;50.520;12.152;2023-07-13T00:07:54;15.50;99.90
24802;DHT22;12898;50.520;12.152;2023-07-13T00:10:20;15.50;99.90
24802;DHT22;12898;50.520;12.152;2023-07-13T00:12:47;15.50;99.90
24802;DHT22;12898;50.520;12.152;2023-07-13T00:15:23;15.60;99.90
24802;DHT22;12898;50.520;12.152;2023-07-13T00:17:51;15.60;99.90
24802;DHT22;12898;50.520;12.152;2023-07-13T00:20:19;15.60;99.90
24802;DHT22;12898;50.520;12.152;2023-07-13T00:22:48;15.60;99.90
24802;DHT22;12898;50.520;12.152;2023-07-13T00:25:14;15.60;99.90
24802;DHT22;12898;50.520;12.152;2023-07-13T00:27:42;15.70;99.90
24802;DHT22;12898;50.520;12.152;2023-07-13T00:30:09;15.70;99.90
24802;DHT22;12898;50.520;12.152;2023-07-13T00:32:36;15.70;99.90
24802;DHT22;12898;50.520;12.152;2023-07-13T00:35:02;15.80;99.90
24802;DHT22;12898;50.520;12.152;2023-07-13T00:37:30;15.80;99.90
24802;DHT22;12898;50.520;12.152;2023-07-13T00:39:55;15.80;99.90
24802;DHT22;12898;50.520;12.152;2023-07-13T00:42:21;15.80;99.90
24802;DHT22;12898;50.520;12.152;2023-07-13T00:46:02;15.80;99.90
24802;DHT22;12898;50.520;12.152;2023-07-13T00:47:52;15.70;99.90
24802;DHT22;12898;50.520;12.152;2023-07-13T00:50:19;15.80;99.90
24802;DHT22;12898;50.520;12.152;2023-07-13T00:52:50;15.70;99.90
24802;DHT22;12898;50.520;12.152;2023-07-13T00:55:17;15.70;99.90
24802;DHT22;12898;50.520;12.152;2023-07-13T00:57:43;15.70;99.90
24802;DHT22;12898;50.520;12.152;2023-07-13T01:00:10;15.70;99.90
24802;DHT22;12898;50.520;12.152;2023-07-13T01:02:43;15.60;99.90
24802;DHT22;12898;50.520;12.152;2023-07-13T01:05:14;15.60;99.90
24802;DHT22;12898;50.520;12.152;2023-07-13T01:07:43;15.60;99.90
24802;DHT22;12898;50.520;12.152;2023-07-13T01:10:11;15.60;99.90
24802;DHT22;12898;50.520;12.152;2023-07-13T01:12:37;15.50;99.90
24802;DHT22;12898;50.520;12.152;2023-07-13T01:15:05;15.50;99.90
24802;DHT22;12898;50.520;12.152;2023-07-13T01:17:33;15.50;99.90
24802;DHT22;12898;50.520;12.152;2023-07-13T01:20:00;15.40;99.90
24802;DHT22;12898;50.520;12.152;2023-07-13T01:22:26;15.40;99.90
24802;DHT22;12898;50.520;12.152;2023-07-13T01:24:53;15.30;99.90
24802;DHT22;12898;50.520;12.152;2023-07-13T01:27:24;15.30;99.90
24802;DHT22;12898;50.520;12.152;2023-07-13T01:29:52;15.20;99.90
24802;DHT22;12898;50.520;12.152;2023-07-13T01:32:22;15.20;99.90
24802;DHT22;12898;50.520;12.152;2023-07-13T01:34:50;15.20;99.90
24802;DHT22;12898;50.520;12.152;2023-07-13T01:37:16;15.20;99.90
24802;DHT22;12898;50.520;12.152;2023-07-13T01:39:42;15.20;99.90
24802;DHT22;12898;50.520;12.152;2023-07-13T01:42:08;15.10;99.90
24802;DHT22;12898;50.520;12.152;2023-07-13T01:44:34;15.10;99.90
24802;DHT22;12898;50.520;12.152;2023-07-13T01:47:01;15.10;99.90
24802;DHT22;12898;50.520;12.152;2023-07-13T01:49:26;15.10;99.90
24802;DHT22;12898;50.520;12.152;2023-07-13T01:51:52;15.10;99.90
24802;DHT22;12898;50.520;12.152;2023-07-13T01:54:18;15.10;99.90
24802;DHT22;12898;50.520;12.152;2023-07-13T01:56:43;15.10;99.90
24802;DHT22;12898;50.520;12.152;2023-07-13T01:59:09;15.10;99.90
24802;DHT22;12898;50.520;12.152;2023-07-13T02:01:35;15.20;99.90
24802;DHT22;12898;50.520;12.152;2023-07-13T02:04:01;15.20;99.90
24802;DHT22;12898;50.520;12.152;2023-07-13T02:06:27;15.20;99.90
24802;DHT22;12898;50.520;12.152;2023-07-13T02:08:53;15.10;99.90
24802;DHT22;12898;50.520;12.152;2023-07-13T02:11:19;15.10;99.90
24802;DHT22;12898;50.520;12.152;2023-07-13T02:13:45;15.00;99.90
24802;DHT22;12898;50.520;12.152;2023-07-13T02:16:10;15.00;99.90
24802;DHT22;12898;50.520;12.152;2023-07-13T02:18:36;14.90;99.90
24802;DHT22;12898;50.520;12.152;2023-07-13T02:21:03;14.90;99.90
24802;DHT22;12898;50.520;12.152;2023-07-13T02:23:28;14.80;99.90
24802;DHT22;12898;50.520;12.152;2023-07-13T02:26:01;14.80;99.90
24802;DHT22;12898;50.520;12.152;2023-07-13T02:28:30;14.80;99.90
24802;DHT22;12898;50.520;12.152;2023-07-13T02:31:03;14.70;99.90
24802;DHT22;12898;50.520;12.152;2023-07-13T02:33:36;14.60;99.90
24802;DHT22;12898;50.520;12.152;2023-07-13T02:36:02;14.50;99.90
24802;DHT22;12898;50.520;12.152;2023-07-13T02:38:28;14.40;99.90
24802;DHT22;12898;50.520;12.152;2023-07-13T02:40:54;14.30;99.90
24802;DHT22;12898;50.520;12.152;2023-07-13T02:43:20;14.20;99.90
24802;DHT22;12898;50.520;12.152;2023-07-13T02:45:45;14.10;99.90
24802;DHT22;12898;50.520;12.152;2023-07-13T02:48:13;14.10;99.90
24802;DHT22;12898;50.520;12.152;2023-07-13T02:50:38;14.10;99.90
24802;DHT22;12898;50.520;12.152;2023-07-13T02:53:04;14.20;99.90
24802;DHT22;12898;50.520;12.152;2023-07-13T02:55:29;14.20;99.90
24802;DHT22;12898;50.520;12.152;2023-07-13T02:57:55;14.20;99.90
24802;DHT22;12898;50.520;12.152;2023-07-13T03:00:21;14.20;99.90
24802;DHT22;12898;50.520;12.152;2023-07-13T03:02:46;14.10;99.90
24802;DHT22;12898;50.520;12.152;2023-07-13T03:05:12;14.00;99.90
24802;DHT22;12898;50.520;12.152;2023-07-13T03:07:38;14.00;99.90
24802;DHT22;12898;50.520;12.152;2023-07-13T03:10:04;13.90;99.90
24802;DHT22;12898;50.520;12.152;2023-07-13T03:12:30;14.00;99.90
24802;DHT22;12898;50.520;12.152;2023-07-13T03:14:55;13.90;99.90
24802;DHT22;12898;50.520;12.152;2023-07-13T03:17:22;14.00;99.90
24802;DHT22;12898;50.520;12.152;2023-07-13T03:19:47;14.00;99.90
24802;DHT22;12898;50.520;12.152;2023-07-13T03:22:17;14.00;99.90
24802;DHT22;12898;50.520;12.152;2023-07-13T03:24:44;14.00;99.90
24802;DHT22;12898;50.520;12.152;2023-07-13T03:27:09;14.00;99.90
24802;DHT22;12898;50.520;12.152;2023-07-13T03:29:35;13.90;99.90
24802;DHT22;12898;50.520;12.152;2023-07-13T03:32:00;13.80;99.90
24802;DHT22;12898;50.520;12.152;2023-07-13T03:34:26;13.80;99.90
24802;DHT22;12898;50.520;12.152;2023-07-13T03:36:55;13.70;99.90
24802;DHT22;12898;50.520;12.152;2023-07-13T03:39:22;13.60;99.90
24802;DHT22;12898;50.520;12.152;2023-07-13T03:41:48;13.60;99.90
24802;DHT22;12898;50.520;12.152;2023-07-13T03:44:16;13.50;99.90
24802;DHT22;12898;50.520;12.152;2023-07-13T03:46:42;13.50;99.90
24802;DHT22;12898;50.520;12.152;2023-07-13T03:49:08;13.40;99.90
24802;DHT22;12898;50.520;12.152;2023-07-13T03:51:34;13.40;99.90
24802;DHT22;12898;50.520;12.152;2023-07-13T03:53:59;13.40;99.90
24802;DHT22;12898;50.520;12.152;2023-07-13T03:56:25;13.30;99.90
24802;DHT22;12898;50.520;12.152;2023-07-13T03:58:51;13.40;99.90
24802;DHT22;12898;50.520;12.152;2023-07-13T04:01:18;13.40;99.90
24802;DHT22;12898;50.520;12.152;2023-07-13T04:03:45;13.40;99.90
24802;DHT22;12898;50.520;12.152;2023-07-13T04:06:20;13.40;99.90
24802;DHT22;12898;50.520;12.152;2023-07-13T04:08:51;13.50;99.90
24802;DHT22;12898;50.520;12.152;2023-07-13T04:11:20;13.50;99.90
24802;DHT22;12898;50.520;12.152;2023-07-13T04:13:48;13.60;99.90
24802;DHT22;12898;50.520;12.152;2023-07-13T04:16:15;13.60;99.90
24802;DHT22;12898;50.520;12.152;2023-07-13T04:18:40;13.60;99.90
24802;DHT22;12898;50.520;12.152;2023-07-13T04:21:07;13.70;99.90
24802;DHT22;12898;50.520;12.152;2023-07-13T04:23:33;13.60;99.90
24802;DHT22;12898;50.520;12.152;2023-07-13T04:25:59;13.70;99.90
24802;DHT22;12898;50.520;12.152;2023-07-13T04:28:25;13.70;99.90
24802;DHT22;12898;50.520;12.152;2023-07-13T04:30:52;13.70;99.90
24802;DHT22;12898;50.520;12.152;2023-07-13T04:33:18;13.70;99.90
24802;DHT22;12898;50.520;12.152;2023-07-13T04:35:48;13.70;99.90
24802;DHT22;12898;50.520;12.152;2023-07-13T04:38:14;13.70;99.90
24802;DHT22;12898;50.520;12.152;2023-07-13T04:40:44;13.80;99.90
24802;DHT22;12898;50.520;12.152;2023-07-13T04:43:10;13.80;99.90
24802;DHT22;12898;50.520;12.152;2023-07-13T04:45:36;13.90;99.90
24802;DHT22;12898;50.520;12.152;2023-07-13T04:48:02;14.00;99.90
24802;DHT22;12898;50.520;12.152;2023-07-13T04:50:28;14.00;99.90
24802;DHT22;12898;50.520;12.152;2023-07-13T04:52:53;14.00;99.90
24802;DHT22;12898;50.520;12.152;2023-07-13T04:55:20;14.10;99.90
24802;DHT22;12898;50.520;12.152;2023-07-13T04:57:46;14.20;99.90
24802;DHT22;12898;50.520;12.152;2023-07-13T05:00:13;14.30;99.90
24802;DHT22;12898;50.520;12.152;2023-07-13T05:02:43;14.30;99.90
24802;DHT22;12898;50.520;12.152;2023-07-13T05:05:09;14.50;99.90
24802;DHT22;12898;50.520;12.152;2023-07-13T05:07:35;14.70;99.90
24802;DHT22;12898;50.520;12.152;2023-07-13T05:10:01;14.90;99.90
24802;DHT22;12898;50.520;12.152;2023-07-13T05:12:29;15.10;99.90
24802;DHT22;12898;50.520;12.152;2023-07-13T05:14:55;15.30;99.90
24802;DHT22;12898;50.520;12.152;2023-07-13T05:17:21;15.40;99.90
24802;DHT22;12898;50.520;12.152;2023-07-13T05:19:46;15.50;99.90
24802;DHT22;12898;50.520;12.152;2023-07-13T05:22:12;15.50;99.90
24802;DHT22;12898;50.520;12.152;2023-07-13T05:24:38;15.50;99.90
24802;DHT22;12898;50.520;12.152;2023-07-13T05:27:04;15.50;99.90
24802;DHT22;12898;50.520;12.152;2023-07-13T05:29:30;15.50;99.90
24802;DHT22;12898;50.520;12.152;2023-07-13T05:31:56;15.50;99.90
24802;DHT22;12898;50.520;12.152;2023-07-13T05:34:22;15.60;99.90
24802;DHT22;12898;50.520;12.152;2023-07-13T05:36:48;15.70;99.90
24802;DHT22;12898;50.520;12.152;2023-07-13T05:39:15;15.80;99.90
24802;DHT22;12898;50.520;12.152;2023-07-13T05:41:41;16.00;99.90
24802;DHT22;12898;50.520;12.152;2023-07-13T05:44:06;16.10;99.90
24802;DHT22;12898;50.520;12.152;2023-07-13T05:46:32;16.20;99.90
24802;DHT22;12898;50.520;12.152;2023-07-13T05:48:58;16.20;99.90
24802;DHT22;12898;50.520;12.152;2023-07-13T05:51:23;16.30;99.90
24802;DHT22;12898;50.520;12.152;2023-07-13T05:53:49;16.40;99.90
24802;DHT22;12898;50.520;12.152;2023-07-13T05:56:15;16.50;99.90
24802;DHT22;12898;50.520;12.152;2023-07-13T05:58:41;16.60;99.90
24802;DHT22;12898;50.520;12.152;2023-07-13T06:01:10;16.70;99.90
24802;DHT22;12898;50.520;12.152;2023-07-13T06:03:37;16.90;99.90
24802;DHT22;12898;50.520;12.152;2023-07-13T06:06:04;17.00;99.90
24802;DHT22;12898;50.520;12.152;2023-07-13T06:08:31;17.10;99.90
24802;DHT22;12898;50.520;12.152;2023-07-13T06:11:12;17.30;99.90
24802;DHT22;12898;50.520;12.152;2023-07-13T06:13:42;17.40;99.90
24802;DHT22;12898;50.520;12.152;2023-07-13T06:16:08;17.60;99.90
24802;DHT22;12898;50.520;12.152;2023-07-13T06:18:34;17.70;99.90
24802;DHT22;12898;50.520;12.152;2023-07-13T06:21:09;18.00;99.90
24802;DHT22;12898;50.520;12.152;2023-07-13T06:23:36;18.20;99.90
24802;DHT22;12898;50.520;12.152;2023-07-13T06:26:02;18.50;99.90
24802;DHT22;12898;50.520;12.152;2023-07-13T06:28:29;18.70;99.90
24802;DHT22;12898;50.520;12.152;2023-07-13T06:30:57;19.00;99.90
24802;DHT22;12898;50.520;12.152;2023-07-13T06:33:23;19.10;99.90
24802;DHT22;12898;50.520;12.152;2023-07-13T06:35:48;19.30;99.90
24802;DHT22;12898;50.520;12.152;2023-07-13T06:38:14;19.50;99.90
24802;DHT22;12898;50.520;12.152;2023-07-13T06:40:40;19.70;99.90
24802;DHT22;12898;50.520;12.152;2023-07-13T06:43:06;19.80;99.90
24802;DHT22;12898;50.520;12.152;2023-07-13T06:45:40;20.00;99.90
24802;DHT22;12898;50.520;12.152;2023-07-13T06:48:11;20.00;99.90
24802;DHT22;12898;50.520;12.152;2023-07-13T06:50:37;20.10;99.90
24802;DHT22;12898;50.520;12.152;2023-07-13T06:53:03;20.10;99.90
24802;DHT22;12898;50.520;12.152;2023-07-13T06:55:28;20.00;99.90
24802;DHT22;12898;50.520;12.152;2023-07-13T06:57:54;19.90;99.90
24802;DHT22;12898;50.520;12.152;2023-07-13T07:00:20;19.80;99.90
24802;DHT22;12898;50.520;12.152;2023-07-13T07:02:46;19.80;99.90
24802;DHT22;12898;50.520;12.152;2023-07-13T07:05:11;19.90;99.90
24802;DHT22;12898;50.520;12.152;2023-07-13T07:07:37;19.90;99.90
24802;DHT22;12898;50.520;12.152;2023-07-13T07:10:03;19.90;99.90
24802;DHT22;12898;50.520;12.152;2023-07-13T07:12:29;20.00;99.90
24802;DHT22;12898;50.520;12.152;2023-07-13T07:14:55;20.20;99.90
24802;DHT22;12898;50.520;12.152;2023-07-13T07:17:20;20.40;99.90
24802;DHT22;12898;50.520;12.152;2023-07-13T07:19:46;20.70;99.90
24802;DHT22;12898;50.520;12.152;2023-07-13T07:22:12;21.00;99.90
24802;DHT22;12898;50.520;12.152;2023-07-13T07:24:38;21.30;99.80
24802;DHT22;12898;50.520;12.152;2023-07-13T07:27:04;21.40;96.40
24802;DHT22;12898;50.520;12.152;2023-07-13T07:29:29;21.40;98.60
24802;DHT22;12898;50.520;12.152;2023-07-13T07:31:55;21.50;99.90
24802;DHT22;12898;50.520;12.152;2023-07-13T07:34:21;21.50;97.80
24802;DHT22;12898;50.520;12.152;2023-07-13T07:36:46;21.40;97.90
24802;DHT22;12898;50.520;12.152;2023-07-13T07:39:12;21.40;97.10
24802;DHT22;12898;50.520;12.152;2023-07-13T07:41:38;21.50;96.10
24802;DHT22;12898;50.520;12.152;2023-07-13T07:44:04;21.90;96.10
24802;DHT22;12898;50.520;12.152;2023-07-13T07:46:30;22.20;92.30
24802;DHT22;12898;50.520;12.152;2023-07-13T07:48:56;22.60;93.50
24802;DHT22;12898;50.520;12.152;2023-07-13T07:51:22;22.80;91.10
24802;DHT22;12898;50.520;12.152;2023-07-13T07:53:48;23.00;89.00
24802;DHT22;12898;50.520;12.152;2023-07-13T07:56:14;23.20;80.40
24802;DHT22;12898;50.520;12.152;2023-07-13T07:58:41;23.40;79.00
24802;DHT22;12898;50.520;12.152;2023-07-13T08:01:07;23.70;76.70
24802;DHT22;12898;50.520;12.152;2023-07-13T08:03:33;24.00;73.50
24802;DHT22;12898;50.520;12.152;2023-07-13T08:05:59;24.30;69.90
24802;DHT22;12898;50.520;12.152;2023-07-13T08:08:25;24.50;66.60
24802;DHT22;12898;50.520;12.152;2023-07-13T08:10:51;24.90;62.30
24802;DHT22;12898;50.520;12.152;2023-07-13T08:13:17;25.00;62.80
24802;DHT22;12898;50.520;12.152;2023-07-13T08:15:43;25.10;60.50
24802;DHT22;12898;50.520;12.152;2023-07-13T08:18:09;25.40;59.70
24802;DHT22;12898;50.520;12.152;2023-07-13T08:20:38;25.80;58.30
24802;DHT22;12898;50.520;12.152;2023-07-13T08:23:04;26.00;57.50
24802;DHT22;12898;50.520;12.152;2023-07-13T08:25:30;26.50;56.70
24802;DHT22;12898;50.520;12.152;2023-07-13T08:27:56;26.70;54.70
24802;DHT22;12898;50.520;12.152;2023-07-13T08:30:21;26.70;56.30
24802;DHT22;12898;50.520;12.152;2023-07-13T08:32:48;26.90;54.70
24802;DHT22;12898;50.520;12.152;2023-07-13T08:35:14;26.90;54.10
24802;DHT22;12898;50.520;12.152;2023-07-13T08:37:41;26.40;54.40
24802;DHT22;12898;50.520;12.152;2023-07-13T08:40:12;25.80;54.30
24802;DHT22;12898;50.520;12.152;2023-07-13T08:42:46;25.20;54.50
24802;DHT22;12898;50.520;12.152;2023-07-13T08:45:25;24.70;58.00
24802;DHT22;12898;50.520;12.152;2023-07-13T08:48:03;24.30;59.50
24802;DHT22;12898;50.520;12.152;2023-07-13T08:50:38;24.10;60.20
24802;DHT22;12898;50.520;12.152;2023-07-13T08:53:14;24.00;61.50
24802;DHT22;12898;50.520;12.152;2023-07-13T08:55:40;24.10;60.30
24802;DHT22;12898;50.520;12.152;2023-07-13T09:00:52;24.10;60.30
24802;DHT22;12898;50.520;12.152;2023-07-13T09:03:43;24.30;59.10
24802;DHT22;12898;50.520;12.152;2023-07-13T09:06:14;24.40;58.80
24802;DHT22;12898;50.520;12.152;2023-07-13T09:11:36;24.70;58.30
24802;DHT22;12898;50.520;12.152;2023-07-13T09:17:16;24.80;57.90
24802;DHT22;12898;50.520;12.152;2023-07-13T09:19:48;24.70;55.80
24802;DHT22;12898;50.520;12.152;2023-07-13T09:22:20;24.60;55.80
24802;DHT22;12898;50.520;12.152;2023-07-13T09:25:24;24.70;56.60
24802;DHT22;12898;50.520;12.152;2023-07-13T09:28:22;25.10;57.80
24802;DHT22;12898;50.520;12.152;2023-07-13T09:33:35;26.00;53.60
24802;DHT22;12898;50.520;12.152;2023-07-13T09:36:04;26.40;52.70
24802;DHT22;12898;50.520;12.152;2023-07-13T09:38:43;26.80;51.80
24802;DHT22;12898;50.520;12.152;2023-07-13T09:44:26;27.30;50.80
24802;DHT22;12898;50.520;12.152;2023-07-13T09:47:02;27.40;49.30
24802;DHT22;12898;50.520;12.152;2023-07-13T09:49:33;27.30;48.70
24802;DHT22;12898;50.520;12.152;2023-07-13T09:52:09;26.80;48.90
24802;DHT22;12898;50.520;12.152;2023-07-13T09:54:37;26.50;49.70
24802;DHT22;12898;50.520;12.152;2023-07-13T09:57:11;26.10;50.30
24802;DHT22;12898;50.520;12.152;2023-07-13T09:59:51;25.70;49.50
24802;DHT22;12898;50.520;12.152;2023-07-13T10:02:35;25.40;50.80
24802;DHT22;12898;50.520;12.152;2023-07-13T10:05:13;25.10;51.60
24802;DHT22;12898;50.520;12.152;2023-07-13T10:07:43;24.90;52.60
24802;DHT22;12898;50.520;12.152;2023-07-13T10:10:18;24.60;53.80
24802;DHT22;12898;50.520;12.152;2023-07-13T10:12:47;24.50;55.30
24802;DHT22;12898;50.520;12.152;2023-07-13T10:15:19;24.40;55.10
24802;DHT22;12898;50.520;12.152;2023-07-13T10:17:48;24.60;55.80
24802;DHT22;12898;50.520;12.152;2023-07-13T10:20:15;24.70;54.20
24802;DHT22;12898;50.520;12.152;2023-07-13T10:22:50;24.70;54.70
24802;DHT22;12898;50.520;12.152;2023-07-13T10:25:23;25.10;54.90
24802;DHT22;12898;50.520;12.152;2023-07-13T10:28:00;26.00;54.20
24802;DHT22;12898;50.520;12.152;2023-07-13T10:30:34;26.60;51.20
24802;DHT22;12898;50.520;12.152;2023-07-13T10:33:03;27.40;49.40
24802;DHT22;12898;50.520;12.152;2023-07-13T10:35:37;27.90;49.20
24802;DHT22;12898;50.520;12.152;2023-07-13T10:38:12;28.70;48.50
24802;DHT22;12898;50.520;12.152;2023-07-13T10:40:43;29.20;46.10
24802;DHT22;12898;50.520;12.152;2023-07-13T10:43:19;29.90;45.80
24802;DHT22;12898;50.520;12.152;2023-07-13T10:45:47;30.40;40.70
24802;DHT22;12898;50.520;12.152;2023-07-13T10:48:17;30.30;42.80
24802;DHT22;12898;50.520;12.152;2023-07-13T10:50:45;30.30;39.70
24802;DHT22;12898;50.520;12.152;2023-07-13T10:53:21;29.50;41.60
24802;DHT22;12898;50.520;12.152;2023-07-13T10:55:59;29.10;42.50
24802;DHT22;12898;50.520;12.152;2023-07-13T10:58:37;29.00;42.40
24802;DHT22;12898;50.520;12.152;2023-07-13T11:01:17;28.90;42.30
24802;DHT22;12898;50.520;12.152;2023-07-13T11:06:33;28.60;43.40
24802;DHT22;12898;50.520;12.152;2023-07-13T11:20:22;28.10;42.00
24802;DHT22;12898;50.520;12.152;2023-07-13T11:22:52;27.70;40.10
24802;DHT22;12898;50.520;12.152;2023-07-13T11:25:34;28.10;43.30
24802;DHT22;12898;50.520;12.152;2023-07-13T11:35:46;28.90;40.40
24802;DHT22;12898;50.520;12.152;2023-07-13T11:38:20;29.70;39.60
24802;DHT22;12898;50.520;12.152;2023-07-13T11:40:53;30.30;37.30
24802;DHT22;12898;50.520;12.152;2023-07-13T11:43:19;30.90;35.60
24802;DHT22;12898;50.520;12.152;2023-07-13T11:45:49;31.00;34.20
24802;DHT22;12898;50.520;12.152;2023-07-13T11:48:25;30.80;34.60
24802;DHT22;12898;50.520;12.152;2023-07-13T11:51:22;30.40;36.00
24802;DHT22;12898;50.520;12.152;2023-07-13T11:53:53;29.60;37.40
24802;DHT22;12898;50.520;12.152;2023-07-13T11:56:19;29.80;37.40
24802;DHT22;12898;50.520;12.152;2023-07-13T11:58:52;30.60;38.80
24802;DHT22;12898;50.520;12.152;2023-07-13T12:01:29;31.10;35.70
24802;DHT22;12898;50.520;12.152;2023-07-13T12:04:00;31.40;35.80
24802;DHT22;12898;50.520;12.152;2023-07-13T12:06:35;30.70;34.60
24802;DHT22;12898;50.520;12.152;2023-07-13T12:09:13;30.00;36.10
24802;DHT22;12898;50.520;12.152;2023-07-13T12:11:42;29.10;37.00
24802;DHT22;12898;50.520;12.152;2023-07-13T12:14:18;28.80;38.80
24802;DHT22;12898;50.520;12.152;2023-07-13T12:16:46;28.50;38.20
24802;DHT22;12898;50.520;12.152;2023-07-13T12:19:20;28.50;38.80
24802;DHT22;12898;50.520;12.152;2023-07-13T12:21:47;28.50;38.10
24802;DHT22;12898;50.520;12.152;2023-07-13T12:24:15;28.70;38.60
24802;DHT22;12898;50.520;12.152;2023-07-13T12:26:43;29.40;38.40
24802;DHT22;12898;50.520;12.152;2023-07-13T12:29:15;29.80;35.60
24802;DHT22;12898;50.520;12.152;2023-07-13T12:31:44;30.40;35.80
24802;DHT22;12898;50.520;12.152;2023-07-13T12:34:14;30.60;36.60
24802;DHT22;12898;50.520;12.152;2023-07-13T12:37:02;31.20;35.50
24802;DHT22;12898;50.520;12.152;2023-07-13T12:39:37;31.70;33.80
24802;DHT22;12898;50.520;12.152;2023-07-13T12:45:01;30.70;33.60
24802;DHT22;12898;50.520;12.152;2023-07-13T12:47:30;30.10;35.00
24802;DHT22;12898;50.520;12.152;2023-07-13T12:49:58;29.40;35.40
24802;DHT22;12898;50.520;12.152;2023-07-13T12:52:33;28.70;35.50
24802;DHT22;12898;50.520;12.152;2023-07-13T12:55:05;28.40;37.70
24802;DHT22;12898;50.520;12.152;2023-07-13T12:57:41;28.40;38.20
24802;DHT22;12898;50.520;12.152;2023-07-13T13:06:00;29.70;34.00
24802;DHT22;12898;50.520;12.152;2023-07-13T13:08:28;29.30;34.30
24802;DHT22;12898;50.520;12.152;2023-07-13T13:10:55;28.60;33.90
24802;DHT22;12898;50.520;12.152;2023-07-13T13:13:21;28.20;34.90
24802;DHT22;12898;50.520;12.152;2023-07-13T13:15:47;28.10;37.30
24802;DHT22;12898;50.520;12.152;2023-07-13T13:18:21;27.90;36.50
24802;DHT22;12898;50.520;12.152;2023-07-13T13:20:49;27.50;37.30
24802;DHT22;12898;50.520;12.152;2023-07-13T13:23:18;27.10;37.60
24802;DHT22;12898;50.520;12.152;2023-07-13T13:25:46;27.00;37.70
24802;DHT22;12898;50.520;12.152;2023-07-13T13:28:15;27.00;37.50
24802;DHT22;12898;50.520;12.152;2023-07-13T13:30:44;27.20;39.20
24802;DHT22;12898;50.520;12.152;2023-07-13T13:33:12;27.40;37.40
24802;DHT22;12898;50.520;12.152;2023-07-13T13:35:40;27.60;37.50
24802;DHT22;12898;50.520;12.152;2023-07-13T13:38:27;27.80;37.70
24802;DHT22;12898;50.520;12.152;2023-07-13T13:40:53;28.00;37.50
24802;DHT22;12898;50.520;12.152;2023-07-13T13:43:26;28.40;37.30
24802;DHT22;12898;50.520;12.152;2023-07-13T13:45:53;28.40;37.00
24802;DHT22;12898;50.520;12.152;2023-07-13T13:48:29;28.30;36.70
24802;DHT22;12898;50.520;12.152;2023-07-13T13:50:58;28.10;36.00
24802;DHT22;12898;50.520;12.152;2023-07-13T13:53:25;27.80;35.90
24802;DHT22;12898;50.520;12.152;2023-07-13T13:55:51;27.50;36.10
24802;DHT22;12898;50.520;12.152;2023-07-13T13:58:18;27.30;36.50
24802;DHT22;12898;50.520;12.152;2023-07-13T14:00:45;27.10;38.30
24802;DHT22;12898;50.520;12.152;2023-07-13T14:03:15;26.90;37.30
24802;DHT22;12898;50.520;12.152;2023-07-13T14:05:43;26.80;38.20
24802;DHT22;12898;50.520;12.152;2023-07-13T14:08:19;26.90;39.70
24802;DHT22;12898;50.520;12.152;2023-07-13T14:10:48;26.80;38.60
24802;DHT22;12898;50.520;12.152;2023-07-13T14:13:24;26.70;37.80
24802;DHT22;12898;50.520;12.152;2023-07-13T14:15:53;26.70;38.70
24802;DHT22;12898;50.520;12.152;2023-07-13T14:18:19;26.80;38.60
24802;DHT22;12898;50.520;12.152;2023-07-13T14:20:47;26.80;37.20
24802;DHT22;12898;50.520;12.152;2023-07-13T14:23:14;26.80;37.30
24802;DHT22;12898;50.520;12.152;2023-07-13T14:25:41;26.90;38.20
24802;DHT22;12898;50.520;12.152;2023-07-13T14:28:25;26.90;38.30
24802;DHT22;12898;50.520;12.152;2023-07-13T14:30:52;26.90;39.30
24802;DHT22;12898;50.520;12.152;2023-07-13T14:33:20;27.00;39.50
24802;DHT22;12898;50.520;12.152;2023-07-13T14:35:46;27.20;39.40
24802;DHT22;12898;50.520;12.152;2023-07-13T14:38:15;27.60;39.90
24802;DHT22;12898;50.520;12.152;2023-07-13T14:40:44;27.90;38.10
24802;DHT22;12898;50.520;12.152;2023-07-13T14:43:11;27.70;37.10
24802;DHT22;12898;50.520;12.152;2023-07-13T14:45:40;27.50;37.50
24802;DHT22;12898;50.520;12.152;2023-07-13T14:48:22;27.10;38.10
24802;DHT22;12898;50.520;12.152;2023-07-13T14:50:58;26.90;38.70
24802;DHT22;12898;50.520;12.152;2023-07-13T14:53:27;26.80;39.20
24802;DHT22;12898;50.520;12.152;2023-07-13T14:55:53;26.60;38.80
24802;DHT22;12898;50.520;12.152;2023-07-13T14:58:19;26.50;39.10
24802;DHT22;12898;50.520;12.152;2023-07-13T15:00:45;26.50;40.70
24802;DHT22;12898;50.520;12.152;2023-07-13T15:03:23;26.90;40.80
24802;DHT22;12898;50.520;12.152;2023-07-13T15:05:51;27.70;39.30
24802;DHT22;12898;50.520;12.152;2023-07-13T15:08:18;28.20;37.00
24802;DHT22;12898;50.520;12.152;2023-07-13T15:10:44;28.00;36.40
24802;DHT22;12898;50.520;12.152;2023-07-13T15:13:16;27.60;38.40
24802;DHT22;12898;50.520;12.152;2023-07-13T15:15:45;27.50;38.30
24802;DHT22;12898;50.520;12.152;2023-07-13T15:18:14;27.20;39.10
24802;DHT22;12898;50.520;12.152;2023-07-13T15:20:43;27.40;40.30
24802;DHT22;12898;50.520;12.152;2023-07-13T15:23:11;28.00;39.50
24802;DHT22;12898;50.520;12.152;2023-07-13T15:25:37;28.20;36.60
24802;DHT22;12898;50.520;12.152;2023-07-13T15:28:03;27.80;36.70
24802;DHT22;12898;50.520;12.152;2023-07-13T15:30:41;27.50;37.80
24802;DHT22;12898;50.520;12.152;2023-07-13T15:33:31;27.20;38.80
24802;DHT22;12898;50.520;12.152;2023-07-13T15:35:59;26.90;40.90
24802;DHT22;12898;50.520;12.152;2023-07-13T15:38:28;26.50;40.10
24802;DHT22;12898;50.520;12.152;2023-07-13T15:40:55;26.40;40.40
24802;DHT22;12898;50.520;12.152;2023-07-13T15:43:21;26.30;40.50
24802;DHT22;12898;50.520;12.152;2023-07-13T15:45:47;26.80;40.70
24802;DHT22;12898;50.520;12.152;2023-07-13T15:48:20;27.50;39.20
24802;DHT22;12898;50.520;12.152;2023-07-13T15:50:49;28.10;39.40
24802;DHT22;12898;50.520;12.152;2023-07-13T15:53:25;28.50;37.40
24802;DHT22;12898;50.520;12.152;2023-07-13T15:55:53;28.60;36.90
24802;DHT22;12898;50.520;12.152;2023-07-13T15:58:19;28.50;37.30
24802;DHT22;12898;50.520;12.152;2023-07-13T16:00:45;29.00;36.30
24802;DHT22;12898;50.520;12.152;2023-07-13T16:03:11;29.60;35.80
24802;DHT22;12898;50.520;12.152;2023-07-13T16:05:38;30.30;35.70
24802;DHT22;12898;50.520;12.152;2023-07-13T16:08:05;30.20;34.30
24802;DHT22;12898;50.520;12.152;2023-07-13T16:13:03;29.50;34.00